Main page
METAR-TAF:

METAR-TAF

Airports :

Ilam Airport

Ilam, Iran

latitude: 33-35-09N, longitude: 046-24-20E, elevation: 1334 m

Current weather observation

The report was made 14 minutes ago, at 03:00 UTC
Wind 4 kt from the East
Temperature 21°C
Humidity 33%
Pressure 1012 hPa
Visibility: 6000 m

METAR: OICI 240300Z 10004KT 6000 NSC 21/04 Q1012 A2989

Time: 07:44 (03:14 UTC)

Forecast

The report was made 4 hours and 14 minutes ago, at 23:00 UTC
Forecast valid from 24 at 00 UTC to 25 at 06 UTC
Wind 6 kt from the Northwest
Visibility: 4000 m
widespread dust
Becoming
from 24 at 07 UTC to 24 at 09 UTC
Visibility: 6000 m

TAF: OICI 232300Z 2400/2506 32003MPS 4000 DU NSC BECMG 2407/2409 6000

Weather observations and forecasts of more than 4000 airports (METAR and TAF reports).

The available stations are represented by yellow and red dots on the map.

Hover mouse over dot to see the name of the station.

Then click to see weather observations and forecasts.

To change the map : click on the green buttons with a black cross to zoom in, on the green button with a dash to zoom out, or on the green arrows for adjacent maps.


METAR-TAF: